createdAt,value
2022-10-17T00:03:03.173Z,15.30
2022-10-17T00:06:45.211Z,15.30
2022-10-17T00:10:27.310Z,15.30
2022-10-17T00:14:09.307Z,15.30
2022-10-17T00:17:51.289Z,15.30
2022-10-17T00:21:33.849Z,15.30
2022-10-17T00:25:16.112Z,15.30
2022-10-17T00:28:58.284Z,15.30
2022-10-17T00:32:40.737Z,15.40
2022-10-17T00:36:25.203Z,15.40
2022-10-17T00:40:08.204Z,15.40
2022-10-17T00:44:05.344Z,15.40
2022-10-17T00:47:54.279Z,15.40
2022-10-17T00:51:53.335Z,15.40
2022-10-17T00:55:48.757Z,15.50
2022-10-17T00:59:34.542Z,15.50
2022-10-17T01:03:17.400Z,15.50
2022-10-17T01:06:59.345Z,15.50
2022-10-17T01:10:51.716Z,15.50
2022-10-17T01:14:45.877Z,15.60
2022-10-17T01:18:54.193Z,15.60
2022-10-17T01:22:56.566Z,15.60
2022-10-17T01:27:03.843Z,15.70
2022-10-17T01:30:51.741Z,15.70
2022-10-17T01:34:44.705Z,15.70
2022-10-17T01:38:48.699Z,15.70
2022-10-17T01:42:58.945Z,15.70
2022-10-17T01:46:47.013Z,15.80
2022-10-17T01:50:34.044Z,15.80
2022-10-17T01:54:27.595Z,15.80
2022-10-17T01:58:20.634Z,15.80
2022-10-17T02:02:03.216Z,15.80
2022-10-17T02:05:46.560Z,15.70
2022-10-17T02:09:28.469Z,15.70
2022-10-17T02:13:19.749Z,15.70
2022-10-17T02:17:28.002Z,15.70
2022-10-17T02:21:29.781Z,15.70
2022-10-17T02:25:22.001Z,15.70
2022-10-17T02:29:10.192Z,15.70
2022-10-17T02:33:12.542Z,15.70
2022-10-17T02:36:58.928Z,15.70
2022-10-17T02:40:41.897Z,15.70
2022-10-17T02:44:25.098Z,15.70
2022-10-17T02:48:23.505Z,15.70
2022-10-17T02:52:28.029Z,15.60
2022-10-17T02:56:17.468Z,15.60
2022-10-17T03:00:02.149Z,15.60
2022-10-17T03:03:44.110Z,15.60
2022-10-17T03:07:26.319Z,15.60
2022-10-17T03:11:08.246Z,15.50
2022-10-17T03:14:50.244Z,15.50
2022-10-17T03:18:32.271Z,15.50
2022-10-17T03:22:14.227Z,15.40
2022-10-17T03:25:56.151Z,15.30
2022-10-17T03:29:38.333Z,15.20
2022-10-17T03:33:20.251Z,15.20
2022-10-17T03:37:02.288Z,15.10
2022-10-17T03:44:34.559Z,15.00
2022-10-17T03:48:16.469Z,15.00
2022-10-17T03:51:58.452Z,14.90
2022-10-17T03:55:40.371Z,14.90
2022-10-17T03:59:22.361Z,14.80
2022-10-17T04:03:04.315Z,14.90
2022-10-17T04:06:46.280Z,14.80
2022-10-17T04:10:28.257Z,14.80
2022-10-17T04:14:11.133Z,14.80
2022-10-17T04:17:53.283Z,14.80
2022-10-17T04:21:35.323Z,14.80
2022-10-17T04:25:17.299Z,14.80
2022-10-17T04:28:59.766Z,14.80
2022-10-17T04:32:41.657Z,14.80
2022-10-17T04:36:23.607Z,14.80
2022-10-17T04:40:06.012Z,14.80
2022-10-17T04:43:50.996Z,14.80
2022-10-17T04:47:33.421Z,14.80
2022-10-17T04:51:20.603Z,14.80
2022-10-17T04:55:06.750Z,14.80
2022-10-17T04:58:49.121Z,14.80
2022-10-17T05:02:31.372Z,14.80
2022-10-17T05:06:19.672Z,14.80
2022-10-17T05:10:01.672Z,14.80
2022-10-17T05:13:43.675Z,14.70
2022-10-17T05:17:25.620Z,14.70
2022-10-17T05:21:08.078Z,14.60
2022-10-17T05:24:49.978Z,14.60
2022-10-17T05:28:32.053Z,14.50
2022-10-17T05:32:15.889Z,14.50
2022-10-17T05:35:58.358Z,14.50
2022-10-17T05:39:40.261Z,14.40
2022-10-17T05:43:22.308Z,14.40
2022-10-17T05:47:04.219Z,14.20
2022-10-17T05:50:46.434Z,14.20
2022-10-17T05:54:28.849Z,14.20
2022-10-17T05:58:17.736Z,14.10
2022-10-17T06:02:04.502Z,14.10
2022-10-17T06:05:46.636Z,14.00
2022-10-17T06:09:28.855Z,13.90
2022-10-17T06:13:10.757Z,13.80
2022-10-17T06:16:52.687Z,13.80
2022-10-17T06:20:34.708Z,13.80
2022-10-17T06:24:16.939Z,13.70
2022-10-17T06:27:59.681Z,13.70
2022-10-17T06:31:41.657Z,13.70
2022-10-17T06:35:23.746Z,13.70
2022-10-17T06:39:11.812Z,13.70
2022-10-17T06:42:53.838Z,13.70
2022-10-17T06:46:35.837Z,13.60
2022-10-17T06:50:17.935Z,13.60
2022-10-17T06:53:59.873Z,13.70
2022-10-17T06:57:41.788Z,13.70
2022-10-17T07:01:23.729Z,13.70
2022-10-17T07:05:06.222Z,13.70
2022-10-17T07:08:48.510Z,13.70
2022-10-17T07:12:30.798Z,13.70
2022-10-17T07:16:13.982Z,13.80
2022-10-17T07:19:55.991Z,13.80
2022-10-17T07:23:38.700Z,13.80
2022-10-17T07:27:20.707Z,13.90
2022-10-17T07:31:15.100Z,14.00
2022-10-17T07:34:57.573Z,14.10
2022-10-17T07:38:40.197Z,14.20
2022-10-17T07:42:22.750Z,14.20
2022-10-17T07:46:06.033Z,14.30
2022-10-17T07:49:48.027Z,14.40
2022-10-17T07:53:30.214Z,14.50
2022-10-17T07:57:12.204Z,14.50
2022-10-17T08:00:54.326Z,14.50
2022-10-17T08:04:36.673Z,14.60
2022-10-17T08:08:18.678Z,14.70
2022-10-17T08:12:00.913Z,14.70
2022-10-17T08:15:42.877Z,14.80
2022-10-17T08:19:24.948Z,15.00
2022-10-17T08:23:07.092Z,15.10
2022-10-17T08:26:51.672Z,15.20
2022-10-17T08:30:33.947Z,15.30
2022-10-17T08:34:16.055Z,15.30
2022-10-17T08:38:01.822Z,15.40
2022-10-17T08:42:13.862Z,15.40
2022-10-17T08:46:00.560Z,15.60
2022-10-17T08:49:47.176Z,15.70
2022-10-17T08:53:41.078Z,15.80
2022-10-17T08:57:23.153Z,15.90
2022-10-17T09:01:48.690Z,16.00
2022-10-17T09:05:36.828Z,16.10
2022-10-17T09:09:34.611Z,16.20
2022-10-17T09:13:41.707Z,16.30
2022-10-17T09:17:44.797Z,16.40
2022-10-17T09:21:59.904Z,16.50
2022-10-17T09:25:50.484Z,16.70
2022-10-17T09:29:37.894Z,17.80
2022-10-17T09:33:54.925Z,18.90
2022-10-17T09:37:38.214Z,20.80
2022-10-17T09:45:37.773Z,24.00
2022-10-17T09:49:29.374Z,25.30
2022-10-17T09:53:16.114Z,26.40
2022-10-17T09:57:08.774Z,27.30
2022-10-17T10:00:50.968Z,27.80
2022-10-17T10:04:46.817Z,28.20
2022-10-17T10:08:48.971Z,28.70
2022-10-17T10:12:34.232Z,29.00
2022-10-17T10:16:32.924Z,29.40
2022-10-17T10:20:29.285Z,29.90
2022-10-17T10:24:14.501Z,30.20
2022-10-17T10:27:58.243Z,29.50
2022-10-17T10:31:45.115Z,28.80
2022-10-17T10:35:37.663Z,28.50
2022-10-17T10:39:37.938Z,27.80
2022-10-17T10:43:46.862Z,27.20
2022-10-17T10:47:31.201Z,27.10
2022-10-17T10:51:17.328Z,26.40
2022-10-17T10:55:41.997Z,25.40
2022-10-17T10:59:58.103Z,25.00
2022-10-17T11:04:07.675Z,23.90
2022-10-17T11:08:10.547Z,24.40
2022-10-17T11:12:04.920Z,25.80
2022-10-17T11:15:58.793Z,26.80
2022-10-17T11:19:47.405Z,26.60
2022-10-17T11:23:43.314Z,26.60
2022-10-17T11:27:26.209Z,27.20
2022-10-17T11:31:14.962Z,27.50
2022-10-17T11:35:13.791Z,27.10
2022-10-17T11:39:12.261Z,27.60
2022-10-17T11:43:00.170Z,27.60
2022-10-17T11:46:44.762Z,26.30
2022-10-17T11:55:00.875Z,26.00
2022-10-17T11:58:50.945Z,26.90
2022-10-17T12:02:39.165Z,27.50
2022-10-17T12:06:39.707Z,26.70
2022-10-17T12:10:42.976Z,26.00
2022-10-17T12:14:34.212Z,25.20
2022-10-17T12:18:17.828Z,25.30
2022-10-17T12:22:07.130Z,25.90
2022-10-17T12:25:51.231Z,26.30
2022-10-17T12:29:33.462Z,26.70
2022-10-17T12:33:55.437Z,26.90
2022-10-17T12:38:16.443Z,27.60
2022-10-17T12:41:58.576Z,28.10
2022-10-17T12:45:55.848Z,28.10
2022-10-17T12:49:55.733Z,27.80
2022-10-17T12:54:16.462Z,27.70
2022-10-17T12:58:08.435Z,27.20
2022-10-17T13:01:54.675Z,26.60
2022-10-17T13:05:40.324Z,25.50
2022-10-17T13:09:30.972Z,24.10
2022-10-17T13:13:22.020Z,23.00
2022-10-17T13:17:07.108Z,22.10
2022-10-17T13:21:03.631Z,21.60
2022-10-17T13:24:46.117Z,21.20
2022-10-17T13:28:29.242Z,21.00
2022-10-17T13:32:12.472Z,20.70
2022-10-17T13:36:00.443Z,20.60
2022-10-17T13:39:55.210Z,20.50
2022-10-17T13:43:38.989Z,20.30
2022-10-17T13:47:30.833Z,20.30
2022-10-17T13:51:13.470Z,20.10
2022-10-17T13:54:56.880Z,20.10
2022-10-17T13:58:44.960Z,20.00
2022-10-17T14:02:32.052Z,19.90
2022-10-17T14:06:31.340Z,19.90
2022-10-17T14:10:21.465Z,19.90
2022-10-17T14:14:04.676Z,19.90
2022-10-17T14:17:53.557Z,20.00
2022-10-17T14:21:43.922Z,20.10
2022-10-17T14:25:37.208Z,20.00
2022-10-17T14:29:52.546Z,20.10
2022-10-17T14:33:38.519Z,20.10
2022-10-17T14:37:36.521Z,19.90
2022-10-17T14:41:43.193Z,19.90
2022-10-17T14:45:29.216Z,19.90
2022-10-17T14:49:39.910Z,19.80
2022-10-17T14:53:22.305Z,19.70
2022-10-17T14:57:41.314Z,19.50
2022-10-17T15:01:23.347Z,19.30
2022-10-17T15:05:10.699Z,19.30
2022-10-17T15:08:55.022Z,19.30
2022-10-17T15:12:37.074Z,19.30
2022-10-17T15:16:23.076Z,19.30
2022-10-17T15:20:14.842Z,19.30
2022-10-17T15:23:58.078Z,19.30
2022-10-17T15:27:40.168Z,19.20
2022-10-17T15:31:24.146Z,19.20
2022-10-17T15:35:06.645Z,19.20
2022-10-17T15:38:49.535Z,19.10
2022-10-17T15:46:29.351Z,18.80
2022-10-17T15:50:18.258Z,18.70
2022-10-17T15:54:01.834Z,18.50
2022-10-17T15:57:46.626Z,18.30
2022-10-17T16:01:31.206Z,18.20
2022-10-17T16:05:29.358Z,18.10
2022-10-17T16:09:27.096Z,17.90
2022-10-17T16:13:24.583Z,17.70
2022-10-17T16:17:16.631Z,17.60
2022-10-17T16:20:59.188Z,17.40
2022-10-17T16:24:41.469Z,17.30
2022-10-17T16:28:23.970Z,17.30
2022-10-17T16:32:06.278Z,17.20
2022-10-17T16:35:49.602Z,17.20
2022-10-17T16:39:32.032Z,17.20
2022-10-17T16:43:14.468Z,17.20
2022-10-17T16:46:56.586Z,17.10
2022-10-17T16:50:41.855Z,17.00
2022-10-17T16:54:24.085Z,16.90
2022-10-17T16:58:06.376Z,16.80
2022-10-17T17:01:48.782Z,16.70
2022-10-17T17:05:31.067Z,16.60
2022-10-17T17:09:13.219Z,16.50
2022-10-17T17:12:55.924Z,16.40
2022-10-17T17:16:38.285Z,16.30
2022-10-17T17:20:20.397Z,16.20
2022-10-17T17:24:05.160Z,16.10
2022-10-17T17:27:47.712Z,15.90
2022-10-17T17:31:32.921Z,15.70
2022-10-17T17:35:15.362Z,15.60
2022-10-17T17:39:00.305Z,15.50
2022-10-17T17:42:42.758Z,15.30
2022-10-17T17:46:28.511Z,15.20
2022-10-17T17:50:10.861Z,15.00
2022-10-17T17:53:53.452Z,14.90
2022-10-17T17:57:36.227Z,14.70
2022-10-17T18:01:25.041Z,14.60
2022-10-17T18:05:08.020Z,14.40
2022-10-17T18:08:53.406Z,14.30
2022-10-17T18:12:36.088Z,14.20
2022-10-17T18:16:18.318Z,14.10
2022-10-17T18:20:00.619Z,13.90
2022-10-17T18:23:45.842Z,13.80
2022-10-17T18:27:28.211Z,13.70
2022-10-17T18:31:14.157Z,13.60
2022-10-17T18:34:56.434Z,13.50
2022-10-17T18:38:38.876Z,13.40
2022-10-17T18:42:21.322Z,13.30
2022-10-17T18:46:16.104Z,13.20
2022-10-17T18:49:58.269Z,13.10
2022-10-17T18:53:42.785Z,13.00
2022-10-17T18:57:26.410Z,12.90
2022-10-17T19:01:12.084Z,12.80
2022-10-17T19:04:54.728Z,12.70
2022-10-17T19:08:38.074Z,12.60
2022-10-17T19:12:20.372Z,12.50
2022-10-17T19:16:08.172Z,12.30
2022-10-17T19:19:52.528Z,12.20
2022-10-17T19:23:36.238Z,12.20
2022-10-17T19:27:20.528Z,12.10
2022-10-17T19:31:03.165Z,12.00
2022-10-17T19:34:45.469Z,11.90
2022-10-17T19:38:28.238Z,11.80
2022-10-17T19:42:11.702Z,11.70
2022-10-17T19:45:58.703Z,11.70
2022-10-17T19:49:40.800Z,11.60
2022-10-17T19:53:24.226Z,11.60
2022-10-17T19:57:09.567Z,11.50
2022-10-17T20:00:55.690Z,11.50
2022-10-17T20:04:49.689Z,11.40
2022-10-17T20:08:42.414Z,11.30
2022-10-17T20:12:24.471Z,11.30
2022-10-17T20:16:09.003Z,11.20
2022-10-17T20:19:51.687Z,11.20
2022-10-17T20:23:34.007Z,11.10
2022-10-17T20:27:16.035Z,11.10
2022-10-17T20:30:58.053Z,11.00
2022-10-17T20:34:40.185Z,10.90
2022-10-17T20:38:22.451Z,10.80
2022-10-17T20:42:13.603Z,10.80
2022-10-17T20:46:03.686Z,10.70
2022-10-17T20:49:51.971Z,10.70
2022-10-17T20:53:37.822Z,10.60
2022-10-17T20:57:20.154Z,10.50
2022-10-17T21:01:07.443Z,10.50
2022-10-17T21:04:50.154Z,10.40
2022-10-17T21:08:32.315Z,10.40
2022-10-17T21:12:21.718Z,10.30
2022-10-17T21:16:18.869Z,10.30
2022-10-17T21:20:01.129Z,10.20
2022-10-17T21:23:45.127Z,10.20
2022-10-17T21:27:27.590Z,10.20
2022-10-17T21:31:24.580Z,10.20
2022-10-17T21:35:07.107Z,10.20
2022-10-17T21:38:51.819Z,10.10
2022-10-17T21:42:34.281Z,10.10
2022-10-17T21:46:20.066Z,10.10
2022-10-17T21:50:02.102Z,10.00
2022-10-17T21:53:44.904Z,10.00
2022-10-17T21:57:27.157Z,9.90
2022-10-17T22:01:16.476Z,9.90
2022-10-17T22:04:58.627Z,9.80
2022-10-17T22:08:40.844Z,9.70
2022-10-17T22:12:23.014Z,9.70
2022-10-17T22:16:08.090Z,9.60
2022-10-17T22:19:50.129Z,9.50
2022-10-17T22:23:32.811Z,9.50
2022-10-17T22:27:14.799Z,9.40
2022-10-17T22:30:57.121Z,9.30
2022-10-17T22:34:39.207Z,9.30
2022-10-17T22:38:21.216Z,9.20
2022-10-17T22:42:03.964Z,9.20
2022-10-17T22:45:53.944Z,9.20
2022-10-17T22:49:35.985Z,9.10
2022-10-17T22:53:23.995Z,9.10
2022-10-17T22:57:06.020Z,9.00
2022-10-17T23:00:49.671Z,8.90
2022-10-17T23:04:31.673Z,8.80
2022-10-17T23:08:15.222Z,8.70
2022-10-17T23:11:57.319Z,8.70
2022-10-17T23:15:39.540Z,8.60
2022-10-17T23:19:21.534Z,8.60
2022-10-17T23:23:03.683Z,8.50
2022-10-17T23:26:45.684Z,8.40
2022-10-17T23:30:27.898Z,8.30
2022-10-17T23:34:10.188Z,8.30
2022-10-17T23:37:52.387Z,8.20
2022-10-17T23:41:34.425Z,8.20
2022-10-17T23:45:17.321Z,8.20
2022-10-17T23:48:59.511Z,8.10
2022-10-17T23:52:41.537Z,8.00
2022-10-17T23:56:23.711Z,8.00
